Time;durP1;ratioP1;P1;durP2;ratioP2;P2;SDS_P1;SDS_P2;PMS_P1;PMS_P2;Temp;Humidity;BMP_temperature;BMP_pressure;BME280_temperature;BME280_humidity;BME280_pressure;Samples;Min_cycle;Max_cycle;Signal;HPM_P1;HPM_P2
2022/06/15 00:00:58;;;;;;;8.93;3.67;;;13.40;96.80;;;;;;4992078;28;20524;-87
2022/06/15 00:03:25;;;;;;;7.17;3.03;;;13.30;96.50;;;;;;4992217;28;20510;-87
2022/06/15 00:05:51;;;;;;;3.33;2.50;;;13.30;96.50;;;;;;4993759;28;20436;-87
2022/06/15 00:08:16;;;;;;;4.23;2.60;;;13.30;96.40;;;;;;4992520;28;20444;-87
2022/06/15 00:10:42;;;;;;;4.77;3.00;;;13.30;96.60;;;;;;4992314;28;20417;-87
2022/06/15 00:13:08;;;;;;;5.00;2.63;;;13.30;96.70;;;;;;4991718;28;20224;-86
2022/06/15 00:15:35;;;;;;;5.07;2.70;;;13.30;96.60;;;;;;4992269;28;20643;-87
2022/06/15 00:18:00;;;;;;;4.37;3.10;;;13.30;96.60;;;;;;4991993;28;21037;-87
2022/06/15 00:20:26;;;;;;;3.90;2.70;;;13.20;96.70;;;;;;4991721;28;20508;-87
2022/06/15 00:22:52;;;;;;;3.83;2.80;;;13.20;96.40;;;;;;4992206;28;20178;-87
2022/06/15 00:25:18;;;;;;;7.87;2.80;;;13.20;96.70;;;;;;4991133;28;20449;-87
2022/06/15 00:27:43;;;;;;;5.97;3.10;;;13.20;96.60;;;;;;4991660;28;20639;-87
2022/06/15 00:30:10;;;;;;;8.53;2.73;;;13.20;96.50;;;;;;4991724;28;20257;-87
2022/06/15 00:32:35;;;;;;;4.03;2.73;;;13.10;96.50;;;;;;4991973;28;20198;-88
2022/06/15 00:35:01;;;;;;;8.03;3.67;;;13.10;96.30;;;;;;4991849;28;20453;-86
2022/06/15 00:37:27;;;;;;;8.00;3.50;;;13.10;96.50;;;;;;4991455;28;20197;-87
2022/06/15 00:39:52;;;;;;;7.73;3.87;;;13.10;96.50;;;;;;4990939;28;20519;-87
2022/06/15 00:42:20;;;;;;;5.60;3.07;;;13.10;96.50;;;;;;4991351;28;20192;-87
2022/06/15 00:44:45;;;;;;;10.67;3.77;;;13.10;96.50;;;;;;4991755;28;20226;-87
2022/06/15 00:47:20;;;;;;;7.40;2.83;;;13.10;96.50;;;;;;4992800;28;20460;-87
2022/06/15 00:50:25;;;;;;;3.30;2.80;;;13.10;96.50;;;;;;4991785;28;20645;-87
2022/06/15 00:53:07;;;;;;;4.50;2.73;;;13.10;96.70;;;;;;4991338;28;20448;-87
2022/06/15 00:55:34;;;;;;;3.73;2.80;;;13.10;96.70;;;;;;4991889;28;20482;-87
2022/06/15 00:58:07;;;;;;;5.50;2.80;;;13.10;96.70;;;;;;4992188;28;20437;-87
2022/06/15 01:00:33;;;;;;;7.40;3.43;;;13.10;96.80;;;;;;4991285;28;20436;-87
2022/06/15 01:02:59;;;;;;;8.40;2.93;;;13.10;96.90;;;;;;4991302;28;20788;-87
2022/06/15 01:05:45;;;;;;;4.17;2.67;;;13.10;97.00;;;;;;4992105;28;20428;-87
2022/06/15 01:08:15;;;;;;;6.50;2.90;;;13.10;97.00;;;;;;4991134;28;20197;-87
2022/06/15 01:11:08;;;;;;;3.90;2.50;;;13.10;97.00;;;;;;4991321;28;20433;-87
2022/06/15 01:13:59;;;;;;;6.03;2.50;;;13.10;97.00;;;;;;4968604;28;20448;-87
2022/06/15 01:16:52;;;;;;;6.93;3.27;;;13.00;96.80;;;;;;4990996;28;20435;-87
2022/06/15 01:19:55;;;;;;;12.43;3.37;;;13.00;97.10;;;;;;4991044;28;20435;-87
2022/06/15 01:22:35;;;;;;;14.77;5.10;;;13.00;97.10;;;;;;4990790;28;20483;-87
2022/06/15 01:25:31;;;;;;;5.60;2.70;;;13.00;97.30;;;;;;4990984;28;20475;-87
2022/06/15 01:28:24;;;;;;;6.10;3.10;;;12.90;97.30;;;;;;4992584;28;20978;-87
2022/06/15 01:30:53;;;;;;;7.20;2.83;;;12.90;97.30;;;;;;4990998;28;20448;-87
2022/06/15 01:33:26;;;;;;;5.03;2.57;;;12.80;97.30;;;;;;4991212;28;20501;-87
2022/06/15 01:36:03;;;;;;;9.03;2.67;;;12.80;97.30;;;;;;4990222;28;20505;-87
2022/06/15 01:38:41;;;;;;;6.60;3.07;;;12.70;97.30;;;;;;4990554;28;20956;-87
2022/06/15 01:41:29;;;;;;;5.33;3.70;;;12.70;97.30;;;;;;4989689;28;20401;-87
2022/06/15 01:44:16;;;;;;;5.63;3.30;;;12.70;97.30;;;;;;4989376;28;20998;-87
2022/06/15 01:46:45;;;;;;;6.70;3.30;;;12.70;97.30;;;;;;4989453;28;20437;-87
2022/06/15 01:49:17;;;;;;;4.80;3.00;;;12.70;97.30;;;;;;4989585;28;20417;-87
2022/06/15 01:51:44;;;;;;;3.13;2.70;;;12.70;97.30;;;;;;4989797;28;20414;-87
2022/06/15 01:54:25;;;;;;;5.30;2.90;;;12.70;97.30;;;;;;4989838;28;20428;-87
2022/06/15 01:56:52;;;;;;;10.90;3.03;;;12.70;97.30;;;;;;4990913;28;20464;-87
2022/06/15 01:59:28;;;;;;;7.20;3.47;;;12.60;97.30;;;;;;4990002;28;20432;-87
2022/06/15 02:02:19;;;;;;;4.07;2.90;;;12.60;97.30;;;;;;4990631;28;20830;-87
2022/06/15 02:05:15;;;;;;;4.20;2.97;;;12.60;97.30;;;;;;4990175;28;20493;-87
2022/06/15 02:08:03;;;;;;;6.10;2.83;;;12.60;97.30;;;;;;4990312;28;20806;-87
2022/06/15 02:10:39;;;;;;;6.50;3.00;;;12.50;97.30;;;;;;4990837;28;20482;-87
2022/06/15 02:13:19;;;;;;;6.90;2.97;;;12.50;97.30;;;;;;4990298;28;20770;-87
2022/06/15 02:15:49;;;;;;;7.90;3.00;;;12.50;97.30;;;;;;4990466;28;20431;-87
2022/06/15 02:18:18;;;;;;;16.43;3.30;;;12.50;97.30;;;;;;4995412;28;20432;-87
2022/06/15 02:20:56;;;;;;;6.60;3.10;;;12.50;97.30;;;;;;4994134;28;20543;-87
2022/06/15 02:23:24;;;;;;;9.37;3.07;;;12.50;97.30;;;;;;4993920;28;20479;-87
2022/06/15 02:25:52;;;;;;;4.53;2.90;;;12.50;97.30;;;;;;4993243;28;20510;-87
2022/06/15 02:28:19;;;;;;;5.43;2.93;;;12.50;97.30;;;;;;4994415;28;20448;-87
2022/06/15 02:30:44;;;;;;;6.27;3.10;;;12.50;97.30;;;;;;4993920;28;20420;-86
2022/06/15 02:33:13;;;;;;;5.47;2.90;;;12.40;97.30;;;;;;4994393;28;20413;-87
2022/06/15 02:35:40;;;;;;;4.73;3.00;;;12.30;97.30;;;;;;4995847;28;20189;-87
2022/06/15 02:38:06;;;;;;;4.40;2.67;;;12.20;97.30;;;;;;4994369;28;20968;-86
2022/06/15 02:40:31;;;;;;;6.10;3.00;;;12.20;97.30;;;;;;4993560;28;20499;-87
2022/06/15 02:43:00;;;;;;;5.10;3.00;;;12.10;97.30;;;;;;4994048;28;20239;-87
2022/06/15 02:45:34;;;;;;;7.37;2.90;;;12.10;97.30;;;;;;4994158;28;20186;-87
2022/06/15 02:48:01;;;;;;;5.00;3.30;;;12.00;97.30;;;;;;4993867;28;20436;-87
2022/06/15 02:50:33;;;;;;;6.03;3.07;;;12.00;97.30;;;;;;4993635;28;20420;-86
2022/06/15 02:53:08;;;;;;;3.77;3.03;;;12.00;97.30;;;;;;4993289;28;20409;-87
2022/06/15 02:55:35;;;;;;;7.50;3.40;;;11.90;97.30;;;;;;4993679;28;20428;-86
2022/06/15 02:58:05;;;;;;;5.27;3.00;;;11.90;97.30;;;;;;4994400;28;20450;-86
2022/06/15 03:00:32;;;;;;;5.90;2.90;;;11.80;97.30;;;;;;4993949;28;20813;-86
2022/06/15 03:02:57;;;;;;;3.73;2.97;;;11.80;97.30;;;;;;4993618;28;20961;-86
2022/06/15 03:05:23;;;;;;;5.67;3.10;;;11.70;97.30;;;;;;4993702;28;20417;-87
2022/06/15 03:07:49;;;;;;;3.70;3.23;;;11.70;97.30;;;;;;4993507;28;20221;-86
2022/06/15 03:10:14;;;;;;;5.60;3.30;;;11.60;97.30;;;;;;4992781;28;20182;-88
2022/06/15 03:12:40;;;;;;;5.37;3.77;;;11.60;97.30;;;;;;4992974;28;20272;-86
2022/06/15 03:15:06;;;;;;;7.43;3.47;;;11.60;97.30;;;;;;4993278;28;20189;-87
2022/06/15 03:17:32;;;;;;;7.70;3.23;;;11.50;97.30;;;;;;4993397;28;20294;-86
2022/06/15 03:19:57;;;;;;;5.77;3.63;;;11.50;97.30;;;;;;4993211;28;20437;-87
2022/06/15 03:22:23;;;;;;;4.83;3.80;;;11.50;97.30;;;;;;4994541;28;20190;-87
2022/06/15 03:24:48;;;;;;;6.60;3.50;;;11.50;97.30;;;;;;4993117;28;20248;-87
2022/06/15 03:27:14;;;;;;;9.37;3.60;;;11.40;97.30;;;;;;4993661;28;20284;-86
2022/06/15 03:29:40;;;;;;;7.70;3.30;;;11.40;97.30;;;;;;4992966;28;20174;-86
2022/06/15 03:32:06;;;;;;;5.70;3.10;;;11.40;97.30;;;;;;4993124;28;20205;-86
2022/06/15 03:34:32;;;;;;;6.20;4.00;;;11.40;97.30;;;;;;4992844;28;20487;-87
2022/06/15 03:36:57;;;;;;;9.20;3.50;;;11.30;97.30;;;;;;4992624;28;20449;-86
2022/06/15 03:39:23;;;;;;;5.97;3.63;;;11.30;97.30;;;;;;4992702;28;20186;-86
2022/06/15 03:41:48;;;;;;;6.60;3.87;;;11.30;97.30;;;;;;4992784;28;20185;-86
2022/06/15 03:44:14;;;;;;;14.63;3.57;;;11.30;97.30;;;;;;4994095;28;20197;-87
2022/06/15 03:46:40;;;;;;;9.53;3.60;;;11.30;97.30;;;;;;4992891;28;20212;-86
2022/06/15 03:49:06;;;;;;;7.97;3.87;;;11.30;97.30;;;;;;4992543;28;20703;-86
2022/06/15 03:51:32;;;;;;;7.90;3.63;;;11.30;97.30;;;;;;4992694;28;20170;-87
2022/06/15 03:53:57;;;;;;;10.87;3.70;;;11.30;97.30;;;;;;4992628;28;20433;-86
2022/06/15 03:56:23;;;;;;;3.90;3.60;;;11.30;97.30;;;;;;4992593;28;20527;-86
2022/06/15 03:58:49;;;;;;;8.90;3.40;;;11.30;97.30;;;;;;4993779;28;20182;-87
2022/06/15 04:01:14;;;;;;;8.13;3.40;;;11.30;97.30;;;;;;4992518;28;20535;-87
2022/06/15 04:03:41;;;;;;;6.40;3.97;;;11.40;97.30;;;;;;4993069;28;20685;-86
2022/06/15 04:06:06;;;;;;;5.40;3.30;;;11.40;97.30;;;;;;4992104;28;20178;-87
2022/06/15 04:08:35;;;;;;;5.50;3.57;;;11.40;97.30;;;;;;4992075;28;20413;-86
2022/06/15 04:11:11;;;;;;;9.13;3.73;;;11.40;97.30;;;;;;4992464;28;20212;-87
2022/06/15 04:13:44;;;;;;;9.17;3.80;;;11.50;97.30;;;;;;4993440;28;20523;-89
2022/06/15 04:16:11;;;;;;;5.60;3.87;;;11.50;97.30;;;;;;4994287;28;20847;-86
2022/06/15 04:18:39;;;;;;;11.57;4.00;;;11.50;97.30;;;;;;4993796;28;20645;-89
2022/06/15 04:21:05;;;;;;;10.97;4.10;;;11.60;97.30;;;;;;4992921;28;20433;-87
2022/06/15 04:23:33;;;;;;;5.97;4.03;;;11.60;97.30;;;;;;4992011;28;20467;-87
2022/06/15 04:26:01;;;;;;;13.87;4.50;;;11.60;97.30;;;;;;4992986;28;20304;-87
2022/06/15 04:28:28;;;;;;;4.60;3.77;;;11.60;97.30;;;;;;4991717;28;20421;-87
2022/06/15 04:30:54;;;;;;;4.33;3.70;;;11.70;97.30;;;;;;4991198;28;20783;-86
2022/06/15 04:33:20;;;;;;;8.00;3.73;;;11.70;97.30;;;;;;4991888;28;20413;-87
2022/06/15 04:35:46;;;;;;;7.00;3.57;;;11.70;97.30;;;;;;4992947;28;20181;-87
2022/06/15 04:38:13;;;;;;;9.20;3.90;;;11.80;97.30;;;;;;4993078;28;20439;-87
2022/06/15 04:40:39;;;;;;;6.57;4.37;;;11.80;97.30;;;;;;4992782;28;20185;-86
2022/06/15 04:43:07;;;;;;;12.30;4.50;;;11.80;97.30;;;;;;4992194;28;20448;-86
2022/06/15 04:45:35;;;;;;;11.30;4.30;;;11.90;97.30;;;;;;4991155;28;20418;-86
2022/06/15 04:48:01;;;;;;;8.90;3.90;;;11.90;97.30;;;;;;4990321;28;20503;-87
2022/06/15 04:50:28;;;;;;;8.90;4.53;;;11.90;97.30;;;;;;4991257;28;20421;-86
2022/06/15 04:52:54;;;;;;;8.13;4.20;;;12.00;97.30;;;;;;4990788;28;20472;-86
2022/06/15 04:55:22;;;;;;;11.20;4.50;;;12.00;97.30;;;;;;4991491;28;20420;-86
2022/06/15 04:57:53;;;;;;;8.93;4.33;;;12.10;97.30;;;;;;4991209;28;20216;-86
2022/06/15 05:00:19;;;;;;;13.70;4.30;;;12.10;97.30;;;;;;4992567;28;20403;-86
2022/06/15 05:02:45;;;;;;;11.83;4.50;;;12.10;97.30;;;;;;4991257;28;20413;-86
2022/06/15 05:05:11;;;;;;;7.77;3.70;;;12.20;97.30;;;;;;4991132;28;20472;-86
2022/06/15 05:07:37;;;;;;;7.80;4.77;;;12.20;97.30;;;;;;4990246;28;20570;-86
2022/06/15 05:10:04;;;;;;;8.23;5.17;;;12.30;97.30;;;;;;4990658;28;20182;-86
2022/06/15 05:12:33;;;;;;;9.83;4.57;;;12.30;97.30;;;;;;4991039;28;20254;-86
2022/06/15 05:15:04;;;;;;;16.83;4.57;;;12.30;97.30;;;;;;4991034;28;20544;-86
2022/06/15 05:17:37;;;;;;;9.23;5.40;;;12.40;97.30;;;;;;4991230;28;20441;-86
2022/06/15 05:20:06;;;;;;;6.87;4.10;;;12.40;97.30;;;;;;4991382;28;20424;-86
2022/06/15 05:22:32;;;;;;;7.10;4.70;;;12.50;97.30;;;;;;4990321;28;20421;-86
2022/06/15 05:24:58;;;;;;;12.10;4.80;;;12.50;97.30;;;;;;4990866;28;20527;-86
2022/06/15 05:27:23;;;;;;;7.03;5.40;;;12.60;97.30;;;;;;4990455;28;20261;-86
2022/06/15 05:29:49;;;;;;;6.83;4.00;;;12.60;97.30;;;;;;4990725;28;20594;-86
2022/06/15 05:32:16;;;;;;;11.20;4.47;;;12.60;97.30;;;;;;4991554;28;20170;-87
2022/06/15 05:34:46;;;;;;;6.00;4.33;;;12.70;97.30;;;;;;4990430;28;20273;-87
2022/06/15 05:37:25;;;;;;;7.17;4.80;;;12.80;97.30;;;;;;4989935;28;20444;-87
2022/06/15 05:40:03;;;;;;;12.90;5.57;;;12.80;97.30;;;;;;4991511;28;20515;-86
2022/06/15 05:42:36;;;;;;;8.20;4.00;;;12.90;97.30;;;;;;5029082;23;20578;-93
2022/06/15 05:45:16;;;;;;;6.93;4.43;;;12.90;97.30;;;;;;5031108;28;20526;-90
2022/06/15 05:47:44;;;;;;;6.47;4.73;;;13.00;97.30;;;;;;5014464;28;20438;-90
2022/06/15 05:50:16;;;;;;;4.70;4.30;;;13.10;97.30;;;;;;5014049;28;20438;-90
2022/06/15 05:52:44;;;;;;;10.07;5.00;;;13.10;97.30;;;;;;5015303;28;20440;-91
2022/06/15 05:55:13;;;;;;;14.00;5.20;;;13.20;97.30;;;;;;4999541;28;20428;-91
2022/06/15 05:58:25;;;;;;;10.93;4.60;;;13.30;97.30;;;;;;4999516;28;20436;-90
2022/06/15 06:00:57;;;;;;;7.33;4.70;;;13.40;97.30;;;;;;4988128;28;20487;-91
2022/06/15 06:03:25;;;;;;;9.80;6.30;;;13.40;97.30;;;;;;4999647;28;20464;-91
2022/06/15 06:06:13;;;;;;;10.00;4.37;;;13.50;97.30;;;;;;4997958;28;20432;-90
2022/06/15 06:09:15;;;;;;;7.60;4.90;;;13.60;97.30;;;;;;5010051;28;20419;-91
2022/06/15 06:11:56;;;;;;;7.70;4.90;;;13.70;97.30;;;;;;4948288;29;20450;-91
2022/06/15 06:14:27;;;;;;;12.87;6.10;;;13.80;97.30;;;;;;4958970;28;20469;-91
2022/06/15 06:16:56;;;;;;;8.23;5.00;;;13.80;97.30;;;;;;4994118;28;20427;-91
2022/06/15 06:19:25;;;;;;;8.80;5.00;;;13.90;97.30;;;;;;4984518;28;20797;-90
2022/06/15 06:22:06;;;;;;;4.80;4.20;;;14.00;97.30;;;;;;4998082;28;20441;-90
2022/06/15 06:24:35;;;;;;;6.77;5.50;;;14.10;97.30;;;;;;5017188;28;20455;-90
2022/06/15 06:27:14;;;;;;;7.20;4.63;;;14.20;97.30;;;;;;5000947;28;20424;-91
2022/06/15 06:29:43;;;;;;;11.70;4.77;;;14.30;97.30;;;;;;4997708;28;20428;-90
2022/06/15 06:32:26;;;;;;;6.27;4.20;;;14.40;97.30;;;;;;4997449;28;20432;-90
2022/06/15 06:35:14;;;;;;;5.97;4.10;;;14.50;97.30;;;;;;4997564;28;20425;-91
2022/06/15 06:37:57;;;;;;;9.33;4.10;;;14.60;97.30;;;;;;4988288;28;20436;-91
2022/06/15 06:40:26;;;;;;;7.13;4.30;;;14.80;97.30;;;;;;5011041;28;20425;-91
2022/06/15 06:42:54;;;;;;;4.87;4.13;;;14.90;97.30;;;;;;4996519;28;20491;-90
2022/06/15 06:45:43;;;;;;;6.67;4.40;;;15.00;97.30;;;;;;4997024;28;20468;-90
2022/06/15 06:48:58;;;;;;;10.40;4.70;;;15.10;97.30;;;;;;4992737;28;20431;-90
2022/06/15 06:51:25;;;;;;;6.17;3.97;;;15.20;97.30;;;;;;4975470;28;20425;-90
2022/06/15 06:53:54;;;;;;;6.93;4.53;;;15.40;97.30;;;;;;5007608;28;20428;-90
2022/06/15 06:56:43;;;;;;;5.20;4.10;;;15.50;97.30;;;;;;4998208;28;20673;-91
2022/06/15 06:59:26;;;;;;;9.10;4.00;;;15.60;97.30;;;;;;5001312;28;20431;-90
2022/06/15 07:01:55;;;;;;;7.50;4.20;;;15.70;97.30;;;;;;5007214;28;20448;-90
2022/06/15 07:04:24;;;;;;;5.60;3.60;;;15.80;97.20;;;;;;5001875;28;20464;-91
2022/06/15 07:06:58;;;;;;;5.20;3.77;;;15.90;96.80;;;;;;5005476;28;20417;-92
2022/06/15 07:09:26;;;;;;;5.17;4.40;;;16.10;96.50;;;;;;5002824;28;20489;-91
2022/06/15 07:11:54;;;;;;;8.73;4.27;;;16.20;96.80;;;;;;5015957;28;20471;-90
2022/06/15 07:14:25;;;;;;;7.70;3.53;;;16.30;96.50;;;;;;5015881;28;20636;-90
2022/06/15 07:16:54;;;;;;;7.43;3.93;;;16.50;95.80;;;;;;5002596;28;20437;-92
2022/06/15 07:19:47;;;;;;;9.60;3.67;;;16.60;94.80;;;;;;5004282;28;20428;-90
2022/06/15 07:22:16;;;;;;;7.80;4.67;;;16.70;94.00;;;;;;5004479;28;20453;-93
2022/06/15 07:24:44;;;;;;;11.83;4.13;;;16.80;93.90;;;;;;4998585;28;20885;-90
2022/06/15 07:27:34;;;;;;;9.97;3.70;;;16.90;94.20;;;;;;5015056;28;20431;-90
2022/06/15 07:30:23;;;;;;;11.47;3.87;;;17.10;93.90;;;;;;4989981;28;20563;-93
2022/06/15 07:32:56;;;;;;;7.67;3.80;;;17.20;92.90;;;;;;5009154;28;20436;-91
2022/06/15 07:38:15;;;;;;;4.40;3.10;;;17.50;91.60;;;;;;4992175;28;20421;-91
2022/06/15 07:40:44;;;;;;;7.63;2.80;;;17.60;91.10;;;;;;4998165;28;20421;-90
2022/06/15 07:43:16;;;;;;;7.60;3.13;;;17.80;91.10;;;;;;4999819;28;20235;-90
2022/06/15 07:45:46;;;;;;;4.50;3.40;;;17.90;90.70;;;;;;5005671;28;20425;-90
2022/06/15 07:51:36;;;;;;;9.17;4.10;;;18.20;90.50;;;;;;4998123;28;20960;-90
2022/06/15 07:54:10;;;;;;;6.23;3.63;;;18.30;90.20;;;;;;4961723;28;20981;-90
2022/06/15 07:56:47;;;;;;;7.50;3.00;;;18.40;89.60;;;;;;4984908;28;20412;-90
2022/06/15 07:59:16;;;;;;;4.90;3.23;;;18.60;88.90;;;;;;4996143;28;20421;-90
2022/06/15 08:01:46;;;;;;;5.17;3.30;;;18.70;88.80;;;;;;4997481;28;20440;-90
2022/06/15 08:04:15;;;;;;;4.53;3.13;;;18.90;88.90;;;;;;5010641;28;20467;-91
2022/06/15 08:06:45;;;;;;;6.50;3.13;;;19.00;88.10;;;;;;4995439;28;20422;-90
2022/06/15 08:09:14;;;;;;;10.73;3.50;;;19.10;88.20;;;;;;4992925;28;20421;-89
2022/06/15 08:12:16;;;;;;;4.57;3.40;;;19.20;86.70;;;;;;4995193;28;20540;-90
2022/06/15 08:14:51;;;;;;;8.80;3.63;;;19.30;86.80;;;;;;4980269;28;20428;-90
2022/06/15 08:17:33;;;;;;;6.40;3.40;;;19.40;87.10;;;;;;4995858;28;20439;-90
2022/06/15 08:20:15;;;;;;;3.80;2.73;;;19.60;86.30;;;;;;4996784;28;20488;-90
2022/06/15 08:22:44;;;;;;;7.37;2.70;;;19.60;86.50;;;;;;4984325;28;20556;-91
2022/06/15 08:25:14;;;;;;;8.73;2.93;;;19.80;85.80;;;;;;4997322;28;20479;-89
2022/06/15 08:27:40;;;;;;;4.87;2.77;;;19.90;85.30;;;;;;5014522;28;20432;-92
2022/06/15 08:30:08;;;;;;;5.20;3.20;;;19.90;83.90;;;;;;5009395;28;20766;-90
2022/06/15 08:32:34;;;;;;;3.93;2.53;;;20.00;83.90;;;;;;4975352;28;20195;-90
2022/06/15 08:35:03;;;;;;;4.37;3.00;;;20.10;83.80;;;;;;4990480;28;20431;-91
2022/06/15 08:37:29;;;;;;;5.03;3.10;;;20.20;83.80;;;;;;5003523;28;20506;-91
2022/06/15 08:39:54;;;;;;;4.10;2.50;;;20.30;83.60;;;;;;5010434;28;20456;-90
2022/06/15 08:42:49;;;;;;;5.40;2.70;;;20.40;83.00;;;;;;4994600;28;20472;-90
2022/06/15 08:45:33;;;;;;;8.90;3.00;;;20.40;82.50;;;;;;4981280;28;20213;-90
2022/06/15 08:48:22;;;;;;;13.50;3.30;;;20.50;82.30;;;;;;5006603;28;20488;-90
2022/06/15 08:51:01;;;;;;;7.23;2.87;;;20.60;82.60;;;;;;5006976;28;20440;-90
2022/06/15 08:53:38;;;;;;;9.93;2.87;;;20.70;81.80;;;;;;4995583;28;20515;-90
2022/06/15 08:56:26;;;;;;;10.40;3.07;;;20.80;81.90;;;;;;4993720;28;20417;-90
2022/06/15 08:59:05;;;;;;;4.63;2.90;;;20.90;82.00;;;;;;4993974;28;20413;-90
2022/06/15 09:02:03;;;;;;;14.90;2.67;;;21.10;83.00;;;;;;4988388;28;20510;-90
2022/06/15 09:04:56;;;;;;;8.53;3.10;;;21.20;82.50;;;;;;5000314;28;20464;-90
2022/06/15 09:08:07;;;;;;;4.87;2.50;;;21.40;82.00;;;;;;5001789;28;20464;-91
2022/06/15 09:10:56;;;;;;;5.70;2.50;;;21.50;81.30;;;;;;4985297;28;20431;-90
2022/06/15 09:13:46;;;;;;;8.93;3.40;;;21.60;81.10;;;;;;4957869;28;20904;-90
2022/06/15 09:16:35;;;;;;;5.43;3.17;;;21.70;81.50;;;;;;4993421;28;20429;-89
2022/06/15 09:19:25;;;;;;;8.30;3.70;;;21.90;80.80;;;;;;4997585;28;20919;-90
2022/06/15 09:22:37;;;;;;;5.80;2.30;;;22.10;80.50;;;;;;4999206;28;20505;-89
2022/06/15 09:25:24;;;;;;;4.07;2.57;;;22.20;80.00;;;;;;4951963;28;20556;-90
2022/06/15 09:28:27;;;;;;;5.80;2.50;;;22.30;79.50;;;;;;5003399;28;20416;-89
2022/06/15 09:31:07;;;;;;;4.00;2.10;;;22.50;78.70;;;;;;4998670;28;20424;-90
2022/06/15 09:33:44;;;;;;;3.13;2.50;;;22.60;78.20;;;;;;5010450;28;20439;-90
2022/06/15 09:36:37;;;;;;;9.00;2.57;;;22.60;78.20;;;;;;5003282;28;20435;-90
2022/06/15 09:39:17;;;;;;;3.50;1.80;;;22.70;78.00;;;;;;4983952;28;20431;-92
2022/06/15 09:41:54;;;;;;;2.60;1.93;;;22.70;77.10;;;;;;5006688;28;20475;-90
2022/06/15 09:44:54;;;;;;;3.07;2.60;;;22.80;77.20;;;;;;4981891;28;20496;-90
2022/06/15 09:48:01;;;;;;;3.70;2.10;;;23.00;76.80;;;;;;4985748;28;20630;-89
2022/06/15 09:50:45;;;;;;;2.33;1.87;;;23.10;76.40;;;;;;5002120;28;20795;-90
2022/06/15 09:53:18;;;;;;;4.23;2.20;;;23.20;75.60;;;;;;4993576;28;20444;-90
2022/06/15 09:56:24;;;;;;;10.13;2.87;;;23.30;75.90;;;;;;4992449;28;20856;-90
2022/06/15 09:59:04;;;;;;;9.03;2.60;;;23.40;74.70;;;;;;4985631;28;20436;-90
2022/06/15 10:01:57;;;;;;;6.17;2.40;;;23.60;74.80;;;;;;4981949;28;20459;-90
2022/06/15 10:04:38;;;;;;;5.83;2.50;;;23.80;73.70;;;;;;4986481;28;20499;-91
2022/06/15 10:07:25;;;;;;;4.97;2.30;;;23.90;74.50;;;;;;4992757;28;20471;-90
2022/06/15 10:10:23;;;;;;;2.90;2.33;;;24.00;74.20;;;;;;4991952;28;20435;-91
2022/06/15 10:13:04;;;;;;;3.00;2.40;;;24.10;73.70;;;;;;4974214;28;20495;-90
2022/06/15 10:15:40;;;;;;;4.57;2.10;;;24.10;73.90;;;;;;4993009;28;20427;-90
2022/06/15 10:18:35;;;;;;;7.83;2.17;;;24.10;73.90;;;;;;4994982;28;20413;-90
2022/06/15 10:21:17;;;;;;;4.60;2.37;;;24.20;73.70;;;;;;4982207;28;20515;-89
2022/06/15 10:23:55;;;;;;;4.83;2.17;;;24.20;72.90;;;;;;4995038;28;20526;-91
2022/06/15 10:26:59;;;;;;;5.80;2.33;;;24.20;74.20;;;;;;4993812;28;20452;-90
2022/06/15 10:29:30;;;;;;;5.37;2.33;;;24.30;74.40;;;;;;4992324;28;20455;-89
2022/06/15 10:32:21;;;;;;;2.37;2.07;;;24.40;73.10;;;;;;5000161;28;20444;-91
2022/06/15 10:34:46;;;;;;;3.23;2.00;;;24.50;72.70;;;;;;5004487;28;20488;-90
2022/06/15 10:37:34;;;;;;;10.63;2.23;;;24.60;72.20;;;;;;4988658;28;20719;-89
2022/06/15 10:40:20;;;;;;;4.67;2.50;;;24.80;73.10;;;;;;5002345;28;20189;-91
2022/06/15 10:42:51;;;;;;;4.40;2.23;;;25.00;72.20;;;;;;4991184;28;20444;-90
2022/06/15 10:45:27;;;;;;;2.67;2.50;;;25.10;72.30;;;;;;4998749;28;21269;-91
2022/06/15 10:48:16;;;;;;;2.90;2.00;;;25.30;73.00;;;;;;4998430;28;20431;-91
2022/06/15 10:51:04;;;;;;;4.03;2.03;;;25.40;74.00;;;;;;5003327;28;20465;-89
2022/06/15 10:53:45;;;;;;;3.10;2.20;;;25.50;73.20;;;;;;4984637;28;20472;-90
2022/06/15 11:02:37;;;;;;;4.17;1.93;;;25.70;73.20;;;;;;4996085;28;20433;-92
2022/06/15 11:05:09;;;;;;;3.10;1.93;;;25.80;70.60;;;;;;4990394;28;20515;-89
2022/06/15 11:07:47;;;;;;;3.10;1.90;;;25.90;71.20;;;;;;5008004;28;20820;-90
2022/06/15 11:10:21;;;;;;;3.30;2.30;;;26.00;69.20;;;;;;5005922;28;20900;-90
2022/06/15 11:13:03;;;;;;;3.63;2.27;;;26.10;69.90;;;;;;4994001;28;20540;-91
2022/06/15 11:18:43;;;;;;;5.13;2.13;;;26.30;69.10;;;;;;4991773;28;20467;-90
2022/06/15 11:21:11;;;;;;;3.23;1.80;;;26.30;68.50;;;;;;4999718;28;20429;-90
2022/06/15 11:23:56;;;;;;;2.37;2.00;;;26.30;69.80;;;;;;4998881;28;20916;-90
2022/06/15 11:26:54;;;;;;;3.67;2.20;;;26.40;71.10;;;;;;5001367;28;20461;-90
2022/06/15 11:29:50;;;;;;;2.63;2.20;;;26.40;69.90;;;;;;4993761;28;20433;-90
2022/06/15 11:32:34;;;;;;;3.63;2.13;;;26.50;70.70;;;;;;5000762;28;20467;-87
2022/06/15 11:35:14;;;;;;;5.83;2.20;;;26.50;70.70;;;;;;5006796;28;20496;-88
2022/06/15 11:37:52;;;;;;;3.27;2.20;;;26.60;70.10;;;;;;4995508;28;20583;-87
2022/06/15 11:40:41;;;;;;;5.07;2.10;;;26.60;70.70;;;;;;4998752;28;20424;-91
2022/06/15 11:43:17;;;;;;;2.83;2.20;;;26.70;69.60;;;;;;4993364;28;20437;-90
2022/06/15 11:46:03;;;;;;;3.87;2.20;;;26.70;69.00;;;;;;4996691;28;20500;-90
2022/06/15 11:48:46;;;;;;;3.50;2.27;;;26.80;68.90;;;;;;4995658;28;20429;-87
2022/06/15 11:51:41;;;;;;;3.27;2.37;;;26.80;68.90;;;;;;4984603;28;20471;-89
2022/06/15 11:54:15;;;;;;;2.47;2.20;;;26.90;68.20;;;;;;4996312;28;20427;-89
2022/06/15 11:57:07;;;;;;;4.00;2.10;;;27.00;67.40;;;;;;4995081;28;20421;-91
2022/06/15 11:59:47;;;;;;;6.03;2.30;;;27.10;67.90;;;;;;5002642;28;20920;-88
2022/06/15 12:02:32;;;;;;;4.57;2.30;;;27.10;68.10;;;;;;4987168;28;20460;-88
2022/06/15 12:05:23;;;;;;;4.07;3.17;;;27.20;67.20;;;;;;4995529;28;20482;-89
2022/06/15 12:08:04;;;;;;;5.20;2.73;;;27.20;68.50;;;;;;5013374;28;20428;-88
2022/06/15 12:10:37;;;;;;;4.57;2.10;;;27.20;68.60;;;;;;5001215;28;20503;-88
2022/06/15 12:13:08;;;;;;;5.27;2.60;;;27.30;67.50;;;;;;5003170;28;20471;-88
2022/06/15 12:15:44;;;;;;;4.47;2.17;;;27.30;66.10;;;;;;4999786;28;20839;-90
2022/06/15 12:18:20;;;;;;;4.83;2.60;;;27.40;68.00;;;;;;4995121;28;20432;-89
2022/06/15 12:21:06;;;;;;;3.80;2.17;;;27.50;67.10;;;;;;5000101;28;20510;-89
2022/06/15 12:23:59;;;;;;;2.40;2.07;;;27.70;67.80;;;;;;5000889;28;20449;-90
2022/06/15 12:26:30;;;;;;;2.70;2.37;;;27.90;68.00;;;;;;4995672;28;20448;-90
2022/06/15 12:29:16;;;;;;;5.03;2.57;;;28.10;67.20;;;;;;4995281;28;20524;-90
2022/06/15 12:32:06;;;;;;;4.53;2.30;;;28.20;67.60;;;;;;5011908;28;20450;-89
2022/06/15 12:34:44;;;;;;;4.00;2.37;;;28.40;66.00;;;;;;5001776;28;20432;-91
2022/06/15 12:37:24;;;;;;;4.17;2.40;;;28.60;64.50;;;;;;5003879;28;20439;-92
2022/06/15 12:40:24;;;;;;;2.50;2.00;;;28.60;64.70;;;;;;4988557;28;20420;-92
2022/06/15 12:42:54;;;;;;;3.13;2.40;;;28.60;65.30;;;;;;5001172;28;20507;-90
2022/06/15 12:45:34;;;;;;;3.83;2.50;;;28.60;67.10;;;;;;5007406;28;20639;-90
2022/06/15 12:48:05;;;;;;;4.80;2.27;;;28.70;65.50;;;;;;4996492;28;20429;-90
2022/06/15 12:50:45;;;;;;;3.60;2.40;;;28.90;63.70;;;;;;4995688;28;20506;-89
2022/06/15 12:53:51;;;;;;;3.77;2.37;;;29.00;64.70;;;;;;4995794;28;20451;-89
2022/06/15 12:56:37;;;;;;;6.07;2.63;;;29.10;65.60;;;;;;4995356;28;20516;-91
2022/06/15 12:59:27;;;;;;;2.87;2.30;;;29.20;66.00;;;;;;4996129;28;20448;-89
2022/06/15 13:02:02;;;;;;;3.47;2.57;;;29.30;65.10;;;;;;4995089;28;20433;-91
2022/06/15 13:04:48;;;;;;;2.50;2.10;;;29.50;65.60;;;;;;5008415;28;20491;-90
2022/06/15 13:07:31;;;;;;;3.33;2.17;;;29.60;66.20;;;;;;4996973;28;21005;-89
2022/06/15 13:10:13;;;;;;;5.10;2.50;;;29.60;65.00;;;;;;5007559;28;20489;-89
2022/06/15 13:12:46;;;;;;;3.13;2.33;;;29.70;66.70;;;;;;4989783;28;20436;-90
2022/06/15 13:15:24;;;;;;;3.40;2.17;;;29.80;64.70;;;;;;5014926;28;20407;-90
2022/06/15 13:20:49;;;;;;;4.50;2.40;;;29.90;65.90;;;;;;5001493;28;20515;-91
2022/06/15 13:23:17;;;;;;;3.40;2.20;;;30.00;66.80;;;;;;5002308;28;20495;-88
2022/06/15 13:25:55;;;;;;;5.13;2.20;;;30.10;66.00;;;;;;5004628;28;20494;-90
2022/06/15 13:28:36;;;;;;;5.10;2.37;;;30.10;65.40;;;;;;5001597;28;20417;-92
2022/06/15 13:31:37;;;;;;;2.73;2.30;;;30.20;65.20;;;;;;4984531;28;20405;-93
2022/06/15 13:34:08;;;;;;;4.47;2.40;;;30.20;63.70;;;;;;4997084;28;20467;-90
2022/06/15 13:36:37;;;;;;;4.27;2.40;;;30.20;64.00;;;;;;4997925;28;20526;-89
2022/06/15 13:39:45;;;;;;;5.20;2.70;;;30.20;63.90;;;;;;4998731;28;21139;-90
2022/06/15 13:42:46;;;;;;;2.40;2.20;;;30.20;63.60;;;;;;4997106;28;20468;-90
2022/06/15 13:45:34;;;;;;;4.23;2.83;;;30.10;63.50;;;;;;4995653;28;21015;-90
2022/06/15 13:48:43;;;;;;;3.20;2.60;;;30.10;63.60;;;;;;4994900;28;20442;-91
2022/06/15 13:51:37;;;;;;;4.43;2.17;;;30.10;63.40;;;;;;4989039;28;20452;-90